Saline County Regional Airport
KSUZ : rendu visible

Aérodrome :











RETROUVEZ-NOUS SUR...

 
LOGIN :

S'inscrire | Disclaimer

   EN    FR    IT 

 









Légende :    VFR   VFR Marginal   IFR   IFR Intensif   IFR Très Intensif
Visi : 
Plafond : 
>= 8 km
>= 3000ft
5 à 8 km
1000 à 3000 ft
1500m à 5 km
500 à 1000 ft
800 à 1500m
200 à 500 ft
< 800m
< 200 ft
Symboles :   Orages  Brouillard  Fortes neiges  Fortes précipitations  Vent > 20 kt






- Altitude de l'aérodrome : 390 ft


KSUZ - Saline County Regional

DERNIER METAR :
  • 021015Z AUTO 00000KT 3SM HZ CLR 13/08 A3003 RMK A01

METARs EXPIRÉS :
  • 020955Z AUTO 00000KT 2SM HZ CLR 13/08 A3002 RMK A01
  • 020935Z AUTO 11004KT 1SM HZ SCT120 13/08 A3002 RMK A01
  • 020915Z AUTO 13005KT 3/4SM HZ VV005 13/08 A3001 RMK A01
  • 020855Z AUTO 13004KT 1 1/4SM HZ CLR 13/08 A3001 RMK A01
  • 020835Z AUTO 13004KT 3/4SM HZ VV005 14/08 A3001 RMK A01
  • 020815Z AUTO 12005KT 1SM HZ CLR 14/08 A3001 RMK A01
  • 020755Z AUTO 12004KT 1 1/4SM HZ CLR 13/08 A3001 RMK A01
  • 020735Z AUTO 12004KT 1 1/4SM HZ CLR 14/08 A3001 RMK A01

TAF N/A



MET'MAP, la Météo Aéronautique d'un coup d'oeil ! - Copyright ORBIFLY Décembre 2007 - Disclaimer

ORBIFLY MET'MAP TEAM :

Programmation & Développement : Alexandra Zaïnal
Sur une idée originale de : Baudouin d'Aumeries
Assistance à la programmation : Marc-Olivier Méhu
Soutien technique & logistique : Manuel Goepfert

Contact : metmap@orbifly.com




SOURCES & CREDITS :

   NOAA       Earth
Advisory